Pendleton, TX (76564)

8:13 PM CST on November 26, 2014 (GMT -0600)
Draughon-Miller Central Texas Regional | Change Station
CLOSE
Current Station
Airport
Location: Temple,
Elevation: 682 ft
Nearby Weather Stations

Elev 682 ft 31.15 °N, 97.41 °W | Updated 18 minutes ago

Clear
Clear
52 °F
Feels Like 52 °F
N
7
Wind Variable Wind from North

Today
High -- | Low -- °F
--% Chance of Precip.
Yesterday
High -- | Low -- °F
Precip. -- in
7:05 AM 5:26 PM
Waxing Crescent, 24% visible
Pressure 30.28 in
Visibility 10.0 miles
Clouds Clear
Dew Point 28 °F
Humidity 41%
Rainfall 0.00 in
Snow Depth Not available.
UV 0 out of 12
Pollen 5.40 out of 12
Air Quality Not available.
Flu Activity Not available.
METAR KTPL 270155Z AUTO 01006KT 10SM CLR 11/M02 A3028 RMK AO1

More Conditions Fewer Conditions

Pressure 30.28 in
Visibility 10.0 miles
Clouds Clear
Dew Point 28 °F
Humidity 41%
Rainfall 0.00 in
Snow Depth Not available.
UV 0 out of 12
Pollen 5.40 out of 12
Air Quality Not available.
Flu Activity Not available.
METAR KTPL 270155Z AUTO 01006KT 10SM CLR 11/M02 A3028 RMK AO1

More Conditions Fewer Conditions

10-Day Weather Forecast

Almanac

Astronomy

Nov. 26, 2014 Rise Set
Actual Time
Civil Twilight
Nautical Twilight
Astronomical Twilight
Moon
Length of Visible Light
Length of Day
Tomorrow will be .
, % of the Moon is Illuminated

Today's Extremes

State Highs State Lows

Community

WunderPhotos

Upload Photos

1,773,943 photos uploaded!

WunderBlogs® & News

Nearby

Air Quality

  Air Quality AQ Index Pollutant
Not available.

Snow Depth

Station Depth Elevation

Earthquake Activity

City Distance Mag. Time & Date
Minimum magnitude displayed is 2.5.

Coastal Water Temperatures

Place Temperature

Nearby Weather Stations